BBC Weser — V2CB2 — position and weather

sailwx.info

Track history (hours):
 
Tides and Currents Weather Stations Pressure Air Temp Water Temp Dewpoint Dewpoint Depression Visibility Wind Speed Wind Dir Waves Ship Positions

BBC Weser

Last reported at 2018-May-30 01:57 UTC. Time now 2018-Jun-21 00:54 UTC.
Position N 22°52' E 066°42'.
Warning: this ship's position is 21 days out of date.

Length 143 m; draft 7.1 m.

Type: Ship. MMSI: 304968000.

Date/timePositionNaut miles runAvg speedWind from/ knotsBaromVisibWave heightAir tempDewpointWater temp
2018-May-30 01:57N 22°52' E 066°42'1114.1
2018-May-30 01:11N 22°55' E 066°31'314.1
2018-May-30 00:57N 22°56' E 066°27'714.0
2018-May-30 00:28N 22°58' E 066°20'714.0
2018-May-29 23:59N 23°00' E 066°13'2314.1
2018-May-29 22:21N 23°07' E 065°50'1114.1
2018-May-29 21:33N 23°10' E 065°38'114.2
2018-May-29 21:30N 23°11' E 065°37'714.2
2018-May-29 21:00N 23°13' E 065°30'1214.4
2018-May-29 20:12N 23°16' E 065°18'414.3
2018-May-29 19:56N 23°17' E 065°14'614.2
2018-May-29 19:30N 23°19' E 065°07'714.1
2018-May-29 19:00N 23°21' E 065°00'714.0
2018-May-29 18:30N 23°24' E 064°53'713.9
2018-May-29 18:00N 23°26' E 064°46'714.0
2018-May-29 17:29N 23°28' E 064°39'713.9
2018-May-29 17:00N 23°30' E 064°32'713.9
2018-May-29 16:30N 23°32' E 064°24'714.0
2018-May-29 15:58N 23°34' E 064°16'22014.5
2018-May-29 00:48N 24°40' E 060°27'  
Track history (hours):
 
Tides and Currents Weather Stations Pressure Air Temp Water Temp Dewpoint Dewpoint Depression Visibility Wind Speed Wind Dir Waves Ship Positions

BBC Weser

Last reported at 2018-May-30 01:57 UTC. Time now 2018-Jun-21 00:54 UTC.
Position N 22°52' E 066°42'.
Warning: this ship's position is 21 days out of date.

Length 143 m; draft 7.1 m.

Type: Ship. MMSI: 304968000.

Date/timePositionNaut miles runAvg speedWind from/ knotsBaromVisibWave heightAir tempDewpointWater temp
2018-May-30 01:57N 22°52' E 066°42'1114.1
2018-May-30 01:11N 22°55' E 066°31'314.1
2018-May-30 00:57N 22°56' E 066°27'714.0
2018-May-30 00:28N 22°58' E 066°20'714.0
2018-May-29 23:59N 23°00' E 066°13'2314.1
2018-May-29 22:21N 23°07' E 065°50'1114.1
2018-May-29 21:33N 23°10' E 065°38'114.2
2018-May-29 21:30N 23°11' E 065°37'714.2
2018-May-29 21:00N 23°13' E 065°30'1214.4
2018-May-29 20:12N 23°16' E 065°18'414.3
2018-May-29 19:56N 23°17' E 065°14'614.2
2018-May-29 19:30N 23°19' E 065°07'714.1
2018-May-29 19:00N 23°21' E 065°00'714.0
2018-May-29 18:30N 23°24' E 064°53'713.9
2018-May-29 18:00N 23°26' E 064°46'714.0
2018-May-29 17:29N 23°28' E 064°39'713.9
2018-May-29 17:00N 23°30' E 064°32'713.9
2018-May-29 16:30N 23°32' E 064°24'714.0
2018-May-29 15:58N 23°34' E 064°16'22014.5
2018-May-29 00:48N 24°40' E 060°27'  

Dump ship's entire track history